sensor_id;sensor_type;location;lat;lon;timestamp;P1;durP1;ratioP1;P2;durP2;ratioP2
16352;SDS011;8286;51.274;9.542;2023-10-08T00:02:21;9.18;;;3.63;;
16352;SDS011;8286;51.274;9.542;2023-10-08T00:04:50;6.60;;;3.22;;
16352;SDS011;8286;51.274;9.542;2023-10-08T00:07:17;13.82;;;3.72;;
16352;SDS011;8286;51.274;9.542;2023-10-08T00:09:46;5.88;;;2.97;;
16352;SDS011;8286;51.274;9.542;2023-10-08T00:12:13;9.43;;;3.35;;
16352;SDS011;8286;51.274;9.542;2023-10-08T00:14:41;7.25;;;3.67;;
16352;SDS011;8286;51.274;9.542;2023-10-08T00:17:11;15.05;;;3.92;;
16352;SDS011;8286;51.274;9.542;2023-10-08T00:19:38;7.70;;;3.60;;
16352;SDS011;8286;51.274;9.542;2023-10-08T00:22:07;7.05;;;4.00;;
16352;SDS011;8286;51.274;9.542;2023-10-08T00:24:34;13.75;;;4.30;;
16352;SDS011;8286;51.274;9.542;2023-10-08T00:27:06;10.38;;;3.83;;
16352;SDS011;8286;51.274;9.542;2023-10-08T00:29:32;5.95;;;3.55;;
16352;SDS011;8286;51.274;9.542;2023-10-08T00:31:59;10.52;;;3.75;;
16352;SDS011;8286;51.274;9.542;2023-10-08T00:34:38;9.45;;;4.00;;
16352;SDS011;8286;51.274;9.542;2023-10-08T00:37:06;11.18;;;4.05;;
16352;SDS011;8286;51.274;9.542;2023-10-08T00:39:34;11.63;;;4.38;;
16352;SDS011;8286;51.274;9.542;2023-10-08T00:42:03;7.38;;;4.40;;
16352;SDS011;8286;51.274;9.542;2023-10-08T00:44:32;5.97;;;3.85;;
16352;SDS011;8286;51.274;9.542;2023-10-08T00:47:03;8.13;;;4.28;;
16352;SDS011;8286;51.274;9.542;2023-10-08T00:49:31;6.95;;;4.30;;
16352;SDS011;8286;51.274;9.542;2023-10-08T00:52:14;9.15;;;3.58;;
16352;SDS011;8286;51.274;9.542;2023-10-08T00:54:55;8.70;;;3.65;;
16352;SDS011;8286;51.274;9.542;2023-10-08T00:57:32;13.30;;;4.53;;
16352;SDS011;8286;51.274;9.542;2023-10-08T01:00:01;7.47;;;4.60;;
16352;SDS011;8286;51.274;9.542;2023-10-08T01:02:32;13.80;;;3.95;;
16352;SDS011;8286;51.274;9.542;2023-10-08T01:05:10;5.68;;;3.97;;
16352;SDS011;8286;51.274;9.542;2023-10-08T01:07:39;11.43;;;4.28;;
16352;SDS011;8286;51.274;9.542;2023-10-08T01:10:09;8.63;;;3.88;;
16352;SDS011;8286;51.274;9.542;2023-10-08T01:12:38;8.63;;;4.35;;
16352;SDS011;8286;51.274;9.542;2023-10-08T01:15:19;15.15;;;4.47;;
16352;SDS011;8286;51.274;9.542;2023-10-08T01:17:49;7.47;;;4.00;;
16352;SDS011;8286;51.274;9.542;2023-10-08T01:20:22;9.95;;;4.70;;
16352;SDS011;8286;51.274;9.542;2023-10-08T01:23:00;6.93;;;4.72;;
16352;SDS011;8286;51.274;9.542;2023-10-08T01:25:29;10.73;;;5.15;;
16352;SDS011;8286;51.274;9.542;2023-10-08T01:27:55;11.30;;;4.75;;
16352;SDS011;8286;51.274;9.542;2023-10-08T01:30:25;9.32;;;4.63;;
16352;SDS011;8286;51.274;9.542;2023-10-08T01:33:00;9.55;;;4.53;;
16352;SDS011;8286;51.274;9.542;2023-10-08T01:35:29;10.05;;;4.50;;
16352;SDS011;8286;51.274;9.542;2023-10-08T01:37:57;7.60;;;4.13;;
16352;SDS011;8286;51.274;9.542;2023-10-08T01:40:26;5.97;;;4.15;;
16352;SDS011;8286;51.274;9.542;2023-10-08T01:42:54;10.20;;;4.82;;
16352;SDS011;8286;51.274;9.542;2023-10-08T01:45:24;11.38;;;4.80;;
16352;SDS011;8286;51.274;9.542;2023-10-08T01:47:51;15.23;;;5.43;;
16352;SDS011;8286;51.274;9.542;2023-10-08T01:50:20;15.90;;;4.90;;
16352;SDS011;8286;51.274;9.542;2023-10-08T01:52:47;8.05;;;4.40;;
16352;SDS011;8286;51.274;9.542;2023-10-08T01:55:13;9.05;;;4.80;;
16352;SDS011;8286;51.274;9.542;2023-10-08T01:57:44;12.05;;;5.30;;
16352;SDS011;8286;51.274;9.542;2023-10-08T02:00:11;14.40;;;5.45;;
16352;SDS011;8286;51.274;9.542;2023-10-08T02:02:39;12.95;;;5.45;;
16352;SDS011;8286;51.274;9.542;2023-10-08T02:05:07;13.02;;;5.05;;
16352;SDS011;8286;51.274;9.542;2023-10-08T02:07:34;12.27;;;6.00;;
16352;SDS011;8286;51.274;9.542;2023-10-08T02:10:00;13.35;;;5.07;;
16352;SDS011;8286;51.274;9.542;2023-10-08T02:12:27;12.80;;;5.43;;
16352;SDS011;8286;51.274;9.542;2023-10-08T02:14:55;8.50;;;4.85;;
16352;SDS011;8286;51.274;9.542;2023-10-08T02:17:21;11.57;;;5.40;;
16352;SDS011;8286;51.274;9.542;2023-10-08T02:19:48;14.10;;;6.63;;
16352;SDS011;8286;51.274;9.542;2023-10-08T02:22:14;8.88;;;5.20;;
16352;SDS011;8286;51.274;9.542;2023-10-08T02:24:41;12.75;;;4.93;;
16352;SDS011;8286;51.274;9.542;2023-10-08T02:27:08;9.02;;;5.45;;
16352;SDS011;8286;51.274;9.542;2023-10-08T02:29:35;8.27;;;5.03;;
16352;SDS011;8286;51.274;9.542;2023-10-08T02:32:03;16.55;;;5.57;;
16352;SDS011;8286;51.274;9.542;2023-10-08T02:34:30;11.27;;;6.10;;
16352;SDS011;8286;51.274;9.542;2023-10-08T02:36:57;14.30;;;6.13;;
16352;SDS011;8286;51.274;9.542;2023-10-08T02:39:24;13.60;;;5.97;;
16352;SDS011;8286;51.274;9.542;2023-10-08T02:41:52;13.52;;;6.07;;
16352;SDS011;8286;51.274;9.542;2023-10-08T02:44:21;16.88;;;5.82;;
16352;SDS011;8286;51.274;9.542;2023-10-08T02:46:49;13.90;;;5.63;;
16352;SDS011;8286;51.274;9.542;2023-10-08T02:49:18;16.63;;;5.45;;
16352;SDS011;8286;51.274;9.542;2023-10-08T02:51:46;12.85;;;5.85;;
16352;SDS011;8286;51.274;9.542;2023-10-08T02:54:15;11.70;;;6.00;;
16352;SDS011;8286;51.274;9.542;2023-10-08T02:56:43;15.35;;;5.88;;
16352;SDS011;8286;51.274;9.542;2023-10-08T02:59:11;11.68;;;6.38;;
16352;SDS011;8286;51.274;9.542;2023-10-08T03:01:38;11.00;;;6.30;;
16352;SDS011;8286;51.274;9.542;2023-10-08T03:04:06;15.23;;;6.18;;
16352;SDS011;8286;51.274;9.542;2023-10-08T03:06:41;9.52;;;6.38;;
16352;SDS011;8286;51.274;9.542;2023-10-08T03:09:08;12.55;;;6.40;;
16352;SDS011;8286;51.274;9.542;2023-10-08T03:11:34;10.40;;;5.88;;
16352;SDS011;8286;51.274;9.542;2023-10-08T03:14:02;14.38;;;6.68;;
16352;SDS011;8286;51.274;9.542;2023-10-08T03:16:30;15.25;;;6.80;;
16352;SDS011;8286;51.274;9.542;2023-10-08T03:18:59;10.48;;;6.35;;
16352;SDS011;8286;51.274;9.542;2023-10-08T03:21:26;14.95;;;7.25;;
16352;SDS011;8286;51.274;9.542;2023-10-08T03:24:08;14.75;;;6.43;;
16352;SDS011;8286;51.274;9.542;2023-10-08T03:26:49;16.38;;;6.72;;
16352;SDS011;8286;51.274;9.542;2023-10-08T03:29:20;16.70;;;6.80;;
16352;SDS011;8286;51.274;9.542;2023-10-08T03:31:47;13.73;;;6.90;;
16352;SDS011;8286;51.274;9.542;2023-10-08T03:34:16;17.70;;;7.57;;
16352;SDS011;8286;51.274;9.542;2023-10-08T03:36:44;17.77;;;7.05;;
16352;SDS011;8286;51.274;9.542;2023-10-08T03:39:13;19.45;;;8.10;;
16352;SDS011;8286;51.274;9.542;2023-10-08T03:41:40;14.93;;;7.05;;
16352;SDS011;8286;51.274;9.542;2023-10-08T03:44:07;11.27;;;7.35;;
16352;SDS011;8286;51.274;9.542;2023-10-08T03:46:38;24.67;;;7.63;;
16352;SDS011;8286;51.274;9.542;2023-10-08T03:49:07;18.55;;;7.72;;
16352;SDS011;8286;51.274;9.542;2023-10-08T03:51:40;15.27;;;7.63;;
16352;SDS011;8286;51.274;9.542;2023-10-08T03:54:06;15.43;;;7.60;;
16352;SDS011;8286;51.274;9.542;2023-10-08T03:56:42;13.55;;;7.38;;
16352;SDS011;8286;51.274;9.542;2023-10-08T03:59:11;15.93;;;8.00;;
16352;SDS011;8286;51.274;9.542;2023-10-08T04:01:40;17.77;;;7.10;;
16352;SDS011;8286;51.274;9.542;2023-10-08T04:04:07;18.05;;;7.38;;
16352;SDS011;8286;51.274;9.542;2023-10-08T04:06:38;16.20;;;8.10;;
16352;SDS011;8286;51.274;9.542;2023-10-08T04:09:04;15.35;;;7.68;;
16352;SDS011;8286;51.274;9.542;2023-10-08T04:11:47;14.50;;;7.15;;
16352;SDS011;8286;51.274;9.542;2023-10-08T04:14:21;20.38;;;7.90;;
16352;SDS011;8286;51.274;9.542;2023-10-08T04:16:48;18.02;;;7.90;;
16352;SDS011;8286;51.274;9.542;2023-10-08T04:19:17;17.88;;;7.30;;
16352;SDS011;8286;51.274;9.542;2023-10-08T04:21:44;18.33;;;7.88;;
16352;SDS011;8286;51.274;9.542;2023-10-08T04:24:19;16.15;;;7.93;;
16352;SDS011;8286;51.274;9.542;2023-10-08T04:26:58;15.15;;;8.10;;
16352;SDS011;8286;51.274;9.542;2023-10-08T04:29:27;15.48;;;7.50;;
16352;SDS011;8286;51.274;9.542;2023-10-08T04:31:57;14.38;;;7.68;;
16352;SDS011;8286;51.274;9.542;2023-10-08T04:34:32;15.02;;;7.38;;
16352;SDS011;8286;51.274;9.542;2023-10-08T04:36:59;17.10;;;8.20;;
16352;SDS011;8286;51.274;9.542;2023-10-08T04:39:29;14.35;;;8.07;;
16352;SDS011;8286;51.274;9.542;2023-10-08T04:41:59;17.63;;;7.40;;
16352;SDS011;8286;51.274;9.542;2023-10-08T04:44:31;20.83;;;8.30;;
16352;SDS011;8286;51.274;9.542;2023-10-08T04:46:58;13.20;;;6.75;;
16352;SDS011;8286;51.274;9.542;2023-10-08T04:49:30;13.00;;;6.18;;
16352;SDS011;8286;51.274;9.542;2023-10-08T04:51:59;15.45;;;5.32;;
16352;SDS011;8286;51.274;9.542;2023-10-08T04:54:30;10.10;;;4.68;;
16352;SDS011;8286;51.274;9.542;2023-10-08T04:56:57;7.57;;;4.40;;
16352;SDS011;8286;51.274;9.542;2023-10-08T04:59:26;8.38;;;4.28;;
16352;SDS011;8286;51.274;9.542;2023-10-08T05:01:59;7.18;;;4.00;;
16352;SDS011;8286;51.274;9.542;2023-10-08T05:04:44;6.60;;;3.35;;
16352;SDS011;8286;51.274;9.542;2023-10-08T05:07:21;8.25;;;3.58;;
16352;SDS011;8286;51.274;9.542;2023-10-08T05:10:05;6.25;;;2.90;;
16352;SDS011;8286;51.274;9.542;2023-10-08T05:12:58;6.75;;;2.28;;
16352;SDS011;8286;51.274;9.542;2023-10-08T05:15:41;4.90;;;2.60;;
16352;SDS011;8286;51.274;9.542;2023-10-08T05:18:15;6.20;;;2.53;;
16352;SDS011;8286;51.274;9.542;2023-10-08T05:20:48;5.03;;;2.70;;
16352;SDS011;8286;51.274;9.542;2023-10-08T05:23:27;4.90;;;2.20;;
16352;SDS011;8286;51.274;9.542;2023-10-08T05:26:18;3.90;;;1.98;;
16352;SDS011;8286;51.274;9.542;2023-10-08T05:28:57;2.10;;;1.88;;
16352;SDS011;8286;51.274;9.542;2023-10-08T05:31:48;3.28;;;1.70;;
16352;SDS011;8286;51.274;9.542;2023-10-08T05:34:35;2.30;;;1.33;;
16352;SDS011;8286;51.274;9.542;2023-10-08T05:37:15;1.73;;;1.00;;
16352;SDS011;8286;51.274;9.542;2023-10-08T05:40:08;2.78;;;1.10;;
16352;SDS011;8286;51.274;9.542;2023-10-08T05:42:46;0.80;;;0.80;;
16352;SDS011;8286;51.274;9.542;2023-10-08T05:45:14;0.75;;;0.65;;
16352;SDS011;8286;51.274;9.542;2023-10-08T05:47:54;1.33;;;0.82;;
16352;SDS011;8286;51.274;9.542;2023-10-08T05:50:33;0.50;;;0.50;;
16352;SDS011;8286;51.274;9.542;2023-10-08T05:53:20;1.88;;;0.90;;
16352;SDS011;8286;51.274;9.542;2023-10-08T05:56:07;0.80;;;0.80;;
16352;SDS011;8286;51.274;9.542;2023-10-08T05:58:53;0.55;;;0.55;;
16352;SDS011;8286;51.274;9.542;2023-10-08T06:01:39;0.32;;;0.32;;
16352;SDS011;8286;51.274;9.542;2023-10-08T06:04:06;0.40;;;0.40;;
16352;SDS011;8286;51.274;9.542;2023-10-08T06:06:56;0.30;;;0.30;;
16352;SDS011;8286;51.274;9.542;2023-10-08T06:09:37;0.30;;;0.30;;
16352;SDS011;8286;51.274;9.542;2023-10-08T06:12:06;0.70;;;0.40;;
16352;SDS011;8286;51.274;9.542;2023-10-08T06:14:34;0.25;;;0.25;;
16352;SDS011;8286;51.274;9.542;2023-10-08T06:17:32;0.30;;;0.30;;
16352;SDS011;8286;51.274;9.542;2023-10-08T06:20:22;0.47;;;0.20;;
16352;SDS011;8286;51.274;9.542;2023-10-08T06:22:52;0.30;;;0.30;;
16352;SDS011;8286;51.274;9.542;2023-10-08T06:25:25;0.30;;;0.30;;
16352;SDS011;8286;51.274;9.542;2023-10-08T06:27:54;0.20;;;0.20;;
16352;SDS011;8286;51.274;9.542;2023-10-08T06:30:22;0.73;;;0.50;;
16352;SDS011;8286;51.274;9.542;2023-10-08T06:32:50;0.20;;;0.20;;
16352;SDS011;8286;51.274;9.542;2023-10-08T06:35:18;0.20;;;0.20;;
16352;SDS011;8286;51.274;9.542;2023-10-08T06:37:50;0.20;;;0.20;;
16352;SDS011;8286;51.274;9.542;2023-10-08T06:40:19;0.20;;;0.20;;
16352;SDS011;8286;51.274;9.542;2023-10-08T06:43:07;0.20;;;0.20;;
16352;SDS011;8286;51.274;9.542;2023-10-08T06:45:49;0.20;;;0.20;;
16352;SDS011;8286;51.274;9.542;2023-10-08T06:48:18;0.30;;;0.30;;
16352;SDS011;8286;51.274;9.542;2023-10-08T06:50:46;1.83;;;0.40;;
16352;SDS011;8286;51.274;9.542;2023-10-08T06:53:14;1.50;;;0.27;;
16352;SDS011;8286;51.274;9.542;2023-10-08T06:55:40;0.30;;;0.30;;
16352;SDS011;8286;51.274;9.542;2023-10-08T06:58:09;0.73;;;0.40;;
16352;SDS011;8286;51.274;9.542;2023-10-08T07:00:36;0.63;;;0.50;;
16352;SDS011;8286;51.274;9.542;2023-10-08T07:03:05;0.50;;;0.50;;
16352;SDS011;8286;51.274;9.542;2023-10-08T07:05:34;0.97;;;0.57;;
16352;SDS011;8286;51.274;9.542;2023-10-08T07:08:06;1.60;;;0.67;;
16352;SDS011;8286;51.274;9.542;2023-10-08T07:10:33;0.30;;;0.30;;
16352;SDS011;8286;51.274;9.542;2023-10-08T07:13:00;0.40;;;0.40;;
16352;SDS011;8286;51.274;9.542;2023-10-08T07:15:29;0.93;;;0.50;;
16352;SDS011;8286;51.274;9.542;2023-10-08T07:17:57;0.30;;;0.30;;
16352;SDS011;8286;51.274;9.542;2023-10-08T07:20:33;0.40;;;0.40;;
16352;SDS011;8286;51.274;9.542;2023-10-08T07:23:04;1.27;;;0.70;;
16352;SDS011;8286;51.274;9.542;2023-10-08T07:25:34;2.17;;;0.40;;
16352;SDS011;8286;51.274;9.542;2023-10-08T07:28:03;0.57;;;0.47;;
16352;SDS011;8286;51.274;9.542;2023-10-08T07:30:38;3.17;;;0.80;;
16352;SDS011;8286;51.274;9.542;2023-10-08T07:33:09;1.10;;;0.70;;
16352;SDS011;8286;51.274;9.542;2023-10-08T07:35:42;1.17;;;0.63;;
16352;SDS011;8286;51.274;9.542;2023-10-08T07:38:16;3.47;;;1.33;;
16352;SDS011;8286;51.274;9.542;2023-10-08T07:40:43;1.00;;;0.63;;
16352;SDS011;8286;51.274;9.542;2023-10-08T07:43:10;1.03;;;0.63;;
16352;SDS011;8286;51.274;9.542;2023-10-08T07:45:39;5.43;;;1.17;;
16352;SDS011;8286;51.274;9.542;2023-10-08T07:48:10;0.80;;;0.80;;
16352;SDS011;8286;51.274;9.542;2023-10-08T07:50:40;3.73;;;1.10;;
16352;SDS011;8286;51.274;9.542;2023-10-08T07:53:07;1.37;;;0.77;;
16352;SDS011;8286;51.274;9.542;2023-10-08T07:55:42;0.80;;;0.80;;
16352;SDS011;8286;51.274;9.542;2023-10-08T07:58:10;2.07;;;1.00;;
16352;SDS011;8286;51.274;9.542;2023-10-08T08:00:38;5.20;;;0.93;;
16352;SDS011;8286;51.274;9.542;2023-10-08T08:03:06;1.27;;;0.80;;
16352;SDS011;8286;51.274;9.542;2023-10-08T08:05:32;1.97;;;1.17;;
16352;SDS011;8286;51.274;9.542;2023-10-08T08:07:59;3.70;;;0.83;;
16352;SDS011;8286;51.274;9.542;2023-10-08T08:10:30;1.50;;;0.70;;
16352;SDS011;8286;51.274;9.542;2023-10-08T08:13:02;3.43;;;1.07;;
16352;SDS011;8286;51.274;9.542;2023-10-08T08:15:31;1.00;;;0.90;;
16352;SDS011;8286;51.274;9.542;2023-10-08T08:17:59;0.97;;;0.80;;
16352;SDS011;8286;51.274;9.542;2023-10-08T08:20:26;1.27;;;0.83;;
16352;SDS011;8286;51.274;9.542;2023-10-08T08:23:04;1.70;;;0.80;;
16352;SDS011;8286;51.274;9.542;2023-10-08T08:25:35;2.33;;;1.10;;
16352;SDS011;8286;51.274;9.542;2023-10-08T08:28:10;3.43;;;1.30;;
16352;SDS011;8286;51.274;9.542;2023-10-08T08:30:42;1.10;;;1.00;;
16352;SDS011;8286;51.274;9.542;2023-10-08T08:33:13;2.97;;;0.90;;
16352;SDS011;8286;51.274;9.542;2023-10-08T08:35:46;2.03;;;0.80;;
16352;SDS011;8286;51.274;9.542;2023-10-08T08:38:13;1.53;;;0.77;;
16352;SDS011;8286;51.274;9.542;2023-10-08T08:40:39;2.07;;;1.20;;
16352;SDS011;8286;51.274;9.542;2023-10-08T08:43:06;1.30;;;1.03;;
16352;SDS011;8286;51.274;9.542;2023-10-08T08:45:35;1.13;;;1.00;;
16352;SDS011;8286;51.274;9.542;2023-10-08T08:48:05;2.63;;;0.90;;
16352;SDS011;8286;51.274;9.542;2023-10-08T08:50:35;3.23;;;0.90;;
16352;SDS011;8286;51.274;9.542;2023-10-08T08:53:02;4.90;;;1.60;;
16352;SDS011;8286;51.274;9.542;2023-10-08T08:55:29;3.60;;;1.00;;
16352;SDS011;8286;51.274;9.542;2023-10-08T08:57:59;1.77;;;0.77;;
16352;SDS011;8286;51.274;9.542;2023-10-08T09:00:26;1.63;;;1.10;;
16352;SDS011;8286;51.274;9.542;2023-10-08T09:02:56;2.07;;;1.10;;
16352;SDS011;8286;51.274;9.542;2023-10-08T09:05:22;2.47;;;0.70;;
16352;SDS011;8286;51.274;9.542;2023-10-08T09:08:00;3.50;;;1.10;;
16352;SDS011;8286;51.274;9.542;2023-10-08T09:10:30;2.53;;;1.07;;
16352;SDS011;8286;51.274;9.542;2023-10-08T09:13:02;1.70;;;0.90;;
16352;SDS011;8286;51.274;9.542;2023-10-08T09:15:29;2.57;;;1.20;;
16352;SDS011;8286;51.274;9.542;2023-10-08T09:17:57;3.03;;;1.07;;
16352;SDS011;8286;51.274;9.542;2023-10-08T09:20:25;2.93;;;0.90;;
16352;SDS011;8286;51.274;9.542;2023-10-08T09:23:06;1.47;;;0.97;;
16352;SDS011;8286;51.274;9.542;2023-10-08T09:25:36;4.17;;;0.90;;
16352;SDS011;8286;51.274;9.542;2023-10-08T09:28:03;1.53;;;0.83;;
16352;SDS011;8286;51.274;9.542;2023-10-08T09:30:32;3.60;;;1.10;;
16352;SDS011;8286;51.274;9.542;2023-10-08T09:33:02;1.70;;;0.90;;
16352;SDS011;8286;51.274;9.542;2023-10-08T09:35:30;4.53;;;0.80;;
16352;SDS011;8286;51.274;9.542;2023-10-08T09:37:58;2.83;;;1.20;;
16352;SDS011;8286;51.274;9.542;2023-10-08T09:40:26;3.23;;;1.23;;
16352;SDS011;8286;51.274;9.542;2023-10-08T09:42:53;2.73;;;1.00;;
16352;SDS011;8286;51.274;9.542;2023-10-08T09:45:20;0.87;;;0.70;;
16352;SDS011;8286;51.274;9.542;2023-10-08T09:47:49;1.53;;;0.90;;
16352;SDS011;8286;51.274;9.542;2023-10-08T09:50:17;3.20;;;1.20;;
16352;SDS011;8286;51.274;9.542;2023-10-08T09:52:49;2.37;;;1.07;;
16352;SDS011;8286;51.274;9.542;2023-10-08T09:55:22;5.87;;;1.10;;
16352;SDS011;8286;51.274;9.542;2023-10-08T09:57:50;2.30;;;0.97;;
16352;SDS011;8286;51.274;9.542;2023-10-08T10:00:20;2.83;;;1.20;;
16352;SDS011;8286;51.274;9.542;2023-10-08T10:02:55;3.43;;;1.40;;
16352;SDS011;8286;51.274;9.542;2023-10-08T10:05:27;4.87;;;1.03;;
16352;SDS011;8286;51.274;9.542;2023-10-08T10:07:55;3.33;;;1.00;;
16352;SDS011;8286;51.274;9.542;2023-10-08T10:10:25;2.00;;;1.20;;
16352;SDS011;8286;51.274;9.542;2023-10-08T10:12:53;1.90;;;0.93;;
16352;SDS011;8286;51.274;9.542;2023-10-08T10:15:24;1.83;;;1.70;;
16352;SDS011;8286;51.274;9.542;2023-10-08T10:17:51;1.73;;;1.10;;
16352;SDS011;8286;51.274;9.542;2023-10-08T10:20:20;2.00;;;1.20;;
16352;SDS011;8286;51.274;9.542;2023-10-08T10:22:46;3.63;;;1.50;;
16352;SDS011;8286;51.274;9.542;2023-10-08T10:25:15;2.03;;;1.00;;
16352;SDS011;8286;51.274;9.542;2023-10-08T10:30:44;1.90;;;0.90;;
16352;SDS011;8286;51.274;9.542;2023-10-08T10:33:10;3.10;;;1.10;;
16352;SDS011;8286;51.274;9.542;2023-10-08T10:35:37;1.53;;;1.00;;
16352;SDS011;8286;51.274;9.542;2023-10-08T10:38:05;1.47;;;0.77;;
16352;SDS011;8286;51.274;9.542;2023-10-08T10:40:31;5.40;;;1.07;;
16352;SDS011;8286;51.274;9.542;2023-10-08T10:43:04;2.43;;;1.30;;
16352;SDS011;8286;51.274;9.542;2023-10-08T10:45:32;2.47;;;1.30;;
16352;SDS011;8286;51.274;9.542;2023-10-08T10:48:03;1.57;;;1.10;;
16352;SDS011;8286;51.274;9.542;2023-10-08T10:50:38;0.73;;;0.73;;
16352;SDS011;8286;51.274;9.542;2023-10-08T10:53:13;16.47;;;1.23;;
16352;SDS011;8286;51.274;9.542;2023-10-08T10:55:41;2.07;;;1.13;;
16352;SDS011;8286;51.274;9.542;2023-10-08T10:58:23;1.27;;;0.90;;
16352;SDS011;8286;51.274;9.542;2023-10-08T11:00:51;1.43;;;1.00;;
16352;SDS011;8286;51.274;9.542;2023-10-08T11:03:24;1.47;;;1.07;;
16352;SDS011;8286;51.274;9.542;2023-10-08T11:05:53;1.77;;;1.03;;
16352;SDS011;8286;51.274;9.542;2023-10-08T11:08:24;1.40;;;1.02;;
16352;SDS011;8286;51.274;9.542;2023-10-08T11:10:52;2.88;;;0.98;;
16352;SDS011;8286;51.274;9.542;2023-10-08T11:13:23;2.07;;;1.30;;
16352;SDS011;8286;51.274;9.542;2023-10-08T11:15:53;1.10;;;0.90;;
16352;SDS011;8286;51.274;9.542;2023-10-08T11:18:25;2.17;;;0.93;;
16352;SDS011;8286;51.274;9.542;2023-10-08T11:20:58;2.25;;;0.80;;
16352;SDS011;8286;51.274;9.542;2023-10-08T11:23:41;3.15;;;1.05;;
16352;SDS011;8286;51.274;9.542;2023-10-08T11:26:08;5.60;;;0.80;;
16352;SDS011;8286;51.274;9.542;2023-10-08T11:28:37;2.58;;;0.80;;
16352;SDS011;8286;51.274;9.542;2023-10-08T11:31:07;2.53;;;1.10;;
16352;SDS011;8286;51.274;9.542;2023-10-08T11:33:36;4.00;;;1.00;;
16352;SDS011;8286;51.274;9.542;2023-10-08T11:36:04;1.80;;;1.05;;
16352;SDS011;8286;51.274;9.542;2023-10-08T11:38:38;2.58;;;1.27;;
16352;SDS011;8286;51.274;9.542;2023-10-08T11:41:09;3.42;;;0.90;;
16352;SDS011;8286;51.274;9.542;2023-10-08T11:43:45;2.42;;;1.10;;
16352;SDS011;8286;51.274;9.542;2023-10-08T11:46:13;1.33;;;1.10;;
16352;SDS011;8286;51.274;9.542;2023-10-08T11:48:44;1.10;;;0.90;;
16352;SDS011;8286;51.274;9.542;2023-10-08T11:51:12;3.75;;;1.40;;
16352;SDS011;8286;51.274;9.542;2023-10-08T11:53:42;1.42;;;1.20;;
16352;SDS011;8286;51.274;9.542;2023-10-08T11:56:09;6.10;;;2.60;;
16352;SDS011;8286;51.274;9.542;2023-10-08T11:58:38;2.65;;;1.20;;
16352;SDS011;8286;51.274;9.542;2023-10-08T12:01:05;2.13;;;1.10;;
16352;SDS011;8286;51.274;9.542;2023-10-08T12:03:36;1.35;;;1.00;;
16352;SDS011;8286;51.274;9.542;2023-10-08T12:06:05;1.13;;;0.80;;
16352;SDS011;8286;51.274;9.542;2023-10-08T12:08:32;2.30;;;1.00;;
16352;SDS011;8286;51.274;9.542;2023-10-08T12:11:04;2.35;;;1.55;;
16352;SDS011;8286;51.274;9.542;2023-10-08T12:13:36;4.90;;;2.33;;
16352;SDS011;8286;51.274;9.542;2023-10-08T12:16:03;5.30;;;1.27;;
16352;SDS011;8286;51.274;9.542;2023-10-08T12:18:32;3.40;;;1.60;;
16352;SDS011;8286;51.274;9.542;2023-10-08T12:21:06;8.73;;;4.38;;
16352;SDS011;8286;51.274;9.542;2023-10-08T12:23:35;3.22;;;1.13;;
16352;SDS011;8286;51.274;9.542;2023-10-08T12:26:02;1.90;;;0.93;;
16352;SDS011;8286;51.274;9.542;2023-10-08T12:28:32;2.45;;;1.15;;
16352;SDS011;8286;51.274;9.542;2023-10-08T12:31:00;1.58;;;0.93;;
16352;SDS011;8286;51.274;9.542;2023-10-08T12:33:26;1.35;;;1.20;;
16352;SDS011;8286;51.274;9.542;2023-10-08T12:35:55;1.85;;;1.25;;
16352;SDS011;8286;51.274;9.542;2023-10-08T12:38:23;2.30;;;1.23;;
16352;SDS011;8286;51.274;9.542;2023-10-08T12:40:53;2.50;;;1.30;;
16352;SDS011;8286;51.274;9.542;2023-10-08T12:43:19;5.25;;;1.35;;
16352;SDS011;8286;51.274;9.542;2023-10-08T12:45:46;1.17;;;1.00;;
16352;SDS011;8286;51.274;9.542;2023-10-08T12:48:18;3.03;;;1.30;;
16352;SDS011;8286;51.274;9.542;2023-10-08T12:50:46;2.28;;;1.10;;
16352;SDS011;8286;51.274;9.542;2023-10-08T12:53:18;3.90;;;1.00;;
16352;SDS011;8286;51.274;9.542;2023-10-08T12:55:53;1.67;;;1.13;;
16352;SDS011;8286;51.274;9.542;2023-10-08T12:58:21;2.17;;;1.20;;
16352;SDS011;8286;51.274;9.542;2023-10-08T13:00:51;1.50;;;1.33;;
16352;SDS011;8286;51.274;9.542;2023-10-08T13:03:22;3.92;;;1.27;;
16352;SDS011;8286;51.274;9.542;2023-10-08T13:05:49;1.92;;;1.10;;
16352;SDS011;8286;51.274;9.542;2023-10-08T13:08:17;2.93;;;1.30;;
16352;SDS011;8286;51.274;9.542;2023-10-08T13:10:44;2.83;;;1.77;;
16352;SDS011;8286;51.274;9.542;2023-10-08T13:13:12;1.77;;;1.00;;
16352;SDS011;8286;51.274;9.542;2023-10-08T13:15:39;1.65;;;1.20;;
16352;SDS011;8286;51.274;9.542;2023-10-08T13:18:07;1.35;;;1.08;;
16352;SDS011;8286;51.274;9.542;2023-10-08T13:20:34;3.35;;;1.98;;
16352;SDS011;8286;51.274;9.542;2023-10-08T13:23:01;2.45;;;1.63;;
16352;SDS011;8286;51.274;9.542;2023-10-08T13:25:27;3.70;;;0.90;;
16352;SDS011;8286;51.274;9.542;2023-10-08T13:27:55;3.90;;;1.40;;
16352;SDS011;8286;51.274;9.542;2023-10-08T13:30:23;2.30;;;1.20;;
16352;SDS011;8286;51.274;9.542;2023-10-08T13:32:50;1.42;;;0.85;;
16352;SDS011;8286;51.274;9.542;2023-10-08T13:35:16;3.15;;;1.23;;
16352;SDS011;8286;51.274;9.542;2023-10-08T13:37:43;3.30;;;1.15;;
16352;SDS011;8286;51.274;9.542;2023-10-08T13:40:11;2.60;;;1.10;;
16352;SDS011;8286;51.274;9.542;2023-10-08T13:42:40;3.45;;;1.25;;
16352;SDS011;8286;51.274;9.542;2023-10-08T13:45:07;2.28;;;0.90;;
16352;SDS011;8286;51.274;9.542;2023-10-08T13:47:42;3.22;;;1.20;;
16352;SDS011;8286;51.274;9.542;2023-10-08T13:50:09;2.83;;;1.40;;
16352;SDS011;8286;51.274;9.542;2023-10-08T13:52:37;1.00;;;0.90;;
16352;SDS011;8286;51.274;9.542;2023-10-08T13:55:05;4.13;;;1.43;;
16352;SDS011;8286;51.274;9.542;2023-10-08T13:57:38;2.42;;;1.05;;
16352;SDS011;8286;51.274;9.542;2023-10-08T14:00:07;1.63;;;1.40;;
16352;SDS011;8286;51.274;9.542;2023-10-08T14:02:40;4.47;;;1.37;;
16352;SDS011;8286;51.274;9.542;2023-10-08T14:05:08;1.40;;;1.30;;
16352;SDS011;8286;51.274;9.542;2023-10-08T14:07:35;2.20;;;1.10;;
16352;SDS011;8286;51.274;9.542;2023-10-08T14:10:03;2.00;;;1.20;;
16352;SDS011;8286;51.274;9.542;2023-10-08T14:12:33;4.33;;;1.00;;
16352;SDS011;8286;51.274;9.542;2023-10-08T14:15:00;3.83;;;1.30;;
16352;SDS011;8286;51.274;9.542;2023-10-08T14:17:31;1.53;;;1.10;;
16352;SDS011;8286;51.274;9.542;2023-10-08T14:20:09;2.00;;;1.13;;
16352;SDS011;8286;51.274;9.542;2023-10-08T14:22:38;1.60;;;1.20;;
16352;SDS011;8286;51.274;9.542;2023-10-08T14:25:06;1.93;;;1.20;;
16352;SDS011;8286;51.274;9.542;2023-10-08T14:27:37;2.95;;;1.35;;
16352;SDS011;8286;51.274;9.542;2023-10-08T14:30:05;2.05;;;0.90;;
16352;SDS011;8286;51.274;9.542;2023-10-08T14:32:40;5.70;;;1.60;;
16352;SDS011;8286;51.274;9.542;2023-10-08T14:35:12;4.38;;;1.13;;
16352;SDS011;8286;51.274;9.542;2023-10-08T14:37:56;3.60;;;1.30;;
16352;SDS011;8286;51.274;9.542;2023-10-08T14:40:40;2.13;;;0.98;;
16352;SDS011;8286;51.274;9.542;2023-10-08T14:43:24;1.90;;;1.02;;
16352;SDS011;8286;51.274;9.542;2023-10-08T14:45:50;3.87;;;1.00;;
16352;SDS011;8286;51.274;9.542;2023-10-08T14:48:17;1.67;;;1.20;;
16352;SDS011;8286;51.274;9.542;2023-10-08T14:50:45;0.90;;;0.90;;
16352;SDS011;8286;51.274;9.542;2023-10-08T14:53:12;1.10;;;1.00;;
16352;SDS011;8286;51.274;9.542;2023-10-08T14:55:39;4.47;;;1.20;;
16352;SDS011;8286;51.274;9.542;2023-10-08T14:58:06;1.85;;;1.42;;
16352;SDS011;8286;51.274;9.542;2023-10-08T15:00:33;2.38;;;1.05;;
16352;SDS011;8286;51.274;9.542;2023-10-08T15:03:01;2.42;;;1.15;;
16352;SDS011;8286;51.274;9.542;2023-10-08T15:05:28;2.70;;;1.47;;
16352;SDS011;8286;51.274;9.542;2023-10-08T15:07:57;5.68;;;1.10;;
16352;SDS011;8286;51.274;9.542;2023-10-08T15:10:23;1.40;;;1.00;;
16352;SDS011;8286;51.274;9.542;2023-10-08T15:12:50;1.00;;;1.00;;
16352;SDS011;8286;51.274;9.542;2023-10-08T15:15:18;3.33;;;1.10;;
16352;SDS011;8286;51.274;9.542;2023-10-08T15:17:48;3.07;;;1.20;;
16352;SDS011;8286;51.274;9.542;2023-10-08T15:20:15;1.33;;;1.13;;
16352;SDS011;8286;51.274;9.542;2023-10-08T15:22:45;0.80;;;0.80;;